sensor_id;sensor_type;location;lat;lon;timestamp;pressure;altitude;pressure_sealevel;temperature;humidity
57572;BME280;44459;43.522;24.470;2022-12-29T00:02:12;101362.72;;;3.39;96.36
57572;BME280;44459;43.522;24.470;2022-12-29T00:04:38;101361.00;;;3.40;96.10
57572;BME280;44459;43.522;24.470;2022-12-29T00:07:04;101356.66;;;3.40;96.32
57572;BME280;44459;43.522;24.470;2022-12-29T00:09:30;101350.56;;;3.40;96.38
57572;BME280;44459;43.522;24.470;2022-12-29T00:11:56;101357.81;;;3.45;96.03
57572;BME280;44459;43.522;24.470;2022-12-29T00:14:21;101367.50;;;3.48;96.10
57572;BME280;44459;43.522;24.470;2022-12-29T00:17:05;101362.28;;;3.48;95.98
57572;BME280;44459;43.522;24.470;2022-12-29T00:19:30;101368.56;;;3.51;95.95
57572;BME280;44459;43.522;24.470;2022-12-29T00:22:15;101361.47;;;3.49;95.77
57572;BME280;44459;43.522;24.470;2022-12-29T00:24:59;101358.97;;;3.50;95.71
57572;BME280;44459;43.522;24.470;2022-12-29T00:27:43;101359.53;;;3.45;95.54
57572;BME280;44459;43.522;24.470;2022-12-29T00:30:27;101371.75;;;3.46;96.09
57572;BME280;44459;43.522;24.470;2022-12-29T00:36:06;101371.13;;;3.50;97.29
57572;BME280;44459;43.522;24.470;2022-12-29T00:38:36;101380.97;;;3.55;97.16
57572;BME280;44459;43.522;24.470;2022-12-29T00:41:21;101374.84;;;3.55;97.51
57572;BME280;44459;43.522;24.470;2022-12-29T00:44:06;101383.66;;;3.57;96.29
57572;BME280;44459;43.522;24.470;2022-12-29T00:46:33;101381.06;;;3.57;96.91
57572;BME280;44459;43.522;24.470;2022-12-29T00:48:59;101376.81;;;3.59;96.56
57572;BME280;44459;43.522;24.470;2022-12-29T00:51:43;101380.47;;;3.63;96.82
57572;BME280;44459;43.522;24.470;2022-12-29T00:54:09;101377.69;;;3.60;96.54
57572;BME280;44459;43.522;24.470;2022-12-29T00:56:34;101370.78;;;3.60;97.20
57572;BME280;44459;43.522;24.470;2022-12-29T00:59:10;101368.88;;;3.58;97.65
57572;BME280;44459;43.522;24.470;2022-12-29T01:01:37;101367.25;;;3.60;97.19
57572;BME280;44459;43.522;24.470;2022-12-29T01:04:04;101376.91;;;3.61;97.38
57572;BME280;44459;43.522;24.470;2022-12-29T01:06:29;101365.72;;;3.63;97.09
57572;BME280;44459;43.522;24.470;2022-12-29T01:08:55;101362.34;;;3.66;96.56
57572;BME280;44459;43.522;24.470;2022-12-29T01:11:39;101357.72;;;3.60;96.53
57572;BME280;44459;43.522;24.470;2022-12-29T01:14:05;101345.47;;;3.59;96.06
57572;BME280;44459;43.522;24.470;2022-12-29T01:16:30;101349.22;;;3.64;96.41
57572;BME280;44459;43.522;24.470;2022-12-29T01:18:56;101344.97;;;3.66;96.08
57572;BME280;44459;43.522;24.470;2022-12-29T01:21:22;101337.94;;;3.65;96.08
57572;BME280;44459;43.522;24.470;2022-12-29T01:23:47;101358.34;;;3.72;95.92
57572;BME280;44459;43.522;24.470;2022-12-29T01:26:14;101344.38;;;3.72;95.90
57572;BME280;44459;43.522;24.470;2022-12-29T01:28:40;101352.22;;;3.72;95.69
57572;BME280;44459;43.522;24.470;2022-12-29T01:31:07;101341.97;;;3.75;95.55
57572;BME280;44459;43.522;24.470;2022-12-29T01:33:33;101345.44;;;3.75;95.50
57572;BME280;44459;43.522;24.470;2022-12-29T01:36:05;101332.97;;;3.70;95.16
57572;BME280;44459;43.522;24.470;2022-12-29T01:38:31;101335.69;;;3.71;95.40
57572;BME280;44459;43.522;24.470;2022-12-29T01:40:57;101339.25;;;3.73;95.55
57572;BME280;44459;43.522;24.470;2022-12-29T01:43:51;101334.78;;;3.71;95.72
57572;BME280;44459;43.522;24.470;2022-12-29T01:46:39;101325.28;;;3.73;95.40
57572;BME280;44459;43.522;24.470;2022-12-29T01:54:16;101321.47;;;3.66;94.00
57572;BME280;44459;43.522;24.470;2022-12-29T01:56:43;101314.69;;;3.70;94.21
57572;BME280;44459;43.522;24.470;2022-12-29T01:59:14;101306.72;;;3.67;93.96
57572;BME280;44459;43.522;24.470;2022-12-29T02:01:41;101313.56;;;3.65;94.17
57572;BME280;44459;43.522;24.470;2022-12-29T02:04:09;101313.56;;;3.65;94.43
57572;BME280;44459;43.522;24.470;2022-12-29T02:06:49;101310.22;;;3.67;94.50
57572;BME280;44459;43.522;24.470;2022-12-29T02:09:16;101290.81;;;3.62;94.05
57572;BME280;44459;43.522;24.470;2022-12-29T02:11:42;101287.63;;;3.68;94.45
57572;BME280;44459;43.522;24.470;2022-12-29T02:14:11;101296.41;;;3.70;94.14
57572;BME280;44459;43.522;24.470;2022-12-29T02:16:50;101287.63;;;3.68;94.52
57572;BME280;44459;43.522;24.470;2022-12-29T02:19:51;101283.38;;;3.70;94.65
57572;BME280;44459;43.522;24.470;2022-12-29T02:30:52;101280.13;;;3.58;94.09
57572;BME280;44459;43.522;24.470;2022-12-29T02:38:55;101274.41;;;3.31;93.77
57572;BME280;44459;43.522;24.470;2022-12-29T02:49:16;101278.53;;;2.93;93.96
57572;BME280;44459;43.522;24.470;2022-12-29T02:51:51;101280.56;;;2.83;95.35
57572;BME280;44459;43.522;24.470;2022-12-29T02:54:18;101274.13;;;2.76;95.65
57572;BME280;44459;43.522;24.470;2022-12-29T02:57:03;101274.72;;;2.71;95.23
57572;BME280;44459;43.522;24.470;2022-12-29T02:59:30;101271.47;;;2.44;98.01
57572;BME280;44459;43.522;24.470;2022-12-29T03:02:07;101258.44;;;2.28;99.86
57572;BME280;44459;43.522;24.470;2022-12-29T03:10:45;101269.06;;;2.01;100.00
57572;BME280;44459;43.522;24.470;2022-12-29T03:13:36;101261.38;;;1.88;100.00
57572;BME280;44459;43.522;24.470;2022-12-29T03:16:44;101259.25;;;1.81;100.00
57572;BME280;44459;43.522;24.470;2022-12-29T03:19:21;101260.88;;;1.79;100.00
57572;BME280;44459;43.522;24.470;2022-12-29T03:24:38;101272.25;;;1.81;100.00
57572;BME280;44459;43.522;24.470;2022-12-29T03:27:07;101271.19;;;1.78;100.00
57572;BME280;44459;43.522;24.470;2022-12-29T03:29:42;101260.53;;;1.73;100.00
57572;BME280;44459;43.522;24.470;2022-12-29T03:32:09;101269.31;;;1.75;100.00
57572;BME280;44459;43.522;24.470;2022-12-29T03:34:38;101277.03;;;1.74;100.00
57572;BME280;44459;43.522;24.470;2022-12-29T03:37:11;101288.97;;;1.70;100.00
57572;BME280;44459;43.522;24.470;2022-12-29T03:39:37;101284.59;;;1.69;100.00
57572;BME280;44459;43.522;24.470;2022-12-29T03:42:06;101287.00;;;1.66;100.00
57572;BME280;44459;43.522;24.470;2022-12-29T03:44:37;101284.31;;;1.65;100.00
57572;BME280;44459;43.522;24.470;2022-12-29T03:47:05;101285.09;;;1.64;100.00
57572;BME280;44459;43.522;24.470;2022-12-29T03:49:30;101282.25;;;1.59;100.00
57572;BME280;44459;43.522;24.470;2022-12-29T03:51:56;101287.47;;;1.59;100.00
57572;BME280;44459;43.522;24.470;2022-12-29T03:54:21;101289.97;;;1.58;100.00
57572;BME280;44459;43.522;24.470;2022-12-29T03:56:47;101292.28;;;1.53;100.00
57572;BME280;44459;43.522;24.470;2022-12-29T03:59:12;101287.53;;;1.46;100.00
57572;BME280;44459;43.522;24.470;2022-12-29T04:01:38;101285.66;;;1.43;100.00
57572;BME280;44459;43.522;24.470;2022-12-29T04:04:03;101283.84;;;1.42;100.00
57572;BME280;44459;43.522;24.470;2022-12-29T04:06:29;101283.59;;;1.38;100.00
57572;BME280;44459;43.522;24.470;2022-12-29T04:08:54;101276.13;;;1.29;100.00
57572;BME280;44459;43.522;24.470;2022-12-29T04:11:21;101289.97;;;1.28;100.00
57572;BME280;44459;43.522;24.470;2022-12-29T04:13:46;101282.66;;;1.23;100.00
57572;BME280;44459;43.522;24.470;2022-12-29T04:16:11;101293.69;;;1.19;99.89
57572;BME280;44459;43.522;24.470;2022-12-29T04:18:37;101286.50;;;1.15;99.95
57572;BME280;44459;43.522;24.470;2022-12-29T04:21:03;101281.94;;;1.11;99.45
57572;BME280;44459;43.522;24.470;2022-12-29T04:23:37;101287.78;;;1.07;99.58
57572;BME280;44459;43.522;24.470;2022-12-29T04:26:03;101285.50;;;0.98;99.36
57572;BME280;44459;43.522;24.470;2022-12-29T04:28:31;101287.63;;;0.90;98.84
57572;BME280;44459;43.522;24.470;2022-12-29T04:30:56;101289.06;;;0.85;99.00
57572;BME280;44459;43.522;24.470;2022-12-29T04:33:22;101297.47;;;0.81;98.91
57572;BME280;44459;43.522;24.470;2022-12-29T04:35:48;101289.47;;;0.78;99.21
57572;BME280;44459;43.522;24.470;2022-12-29T04:38:14;101293.69;;;0.76;99.61
57572;BME280;44459;43.522;24.470;2022-12-29T04:40:41;101296.31;;;0.76;100.00
57572;BME280;44459;43.522;24.470;2022-12-29T04:43:08;101302.91;;;0.71;99.72
57572;BME280;44459;43.522;24.470;2022-12-29T04:45:33;101299.63;;;0.61;100.00
57572;BME280;44459;43.522;24.470;2022-12-29T04:47:59;101300.72;;;0.64;100.00
57572;BME280;44459;43.522;24.470;2022-12-29T04:50:24;101310.31;;;0.65;100.00
57572;BME280;44459;43.522;24.470;2022-12-29T04:52:49;101310.22;;;0.64;100.00
57572;BME280;44459;43.522;24.470;2022-12-29T04:55:15;101309.91;;;0.59;100.00
57572;BME280;44459;43.522;24.470;2022-12-29T04:57:40;101305.16;;;0.52;100.00
57572;BME280;44459;43.522;24.470;2022-12-29T05:00:07;101314.13;;;0.57;100.00
57572;BME280;44459;43.522;24.470;2022-12-29T05:02:34;101307.75;;;0.52;100.00
57572;BME280;44459;43.522;24.470;2022-12-29T05:05:00;101305.44;;;0.57;100.00
57572;BME280;44459;43.522;24.470;2022-12-29T05:07:25;101313.03;;;0.54;100.00
57572;BME280;44459;43.522;24.470;2022-12-29T05:09:50;101310.44;;;0.54;100.00
57572;BME280;44459;43.522;24.470;2022-12-29T05:12:16;101322.63;;;0.55;100.00
57572;BME280;44459;43.522;24.470;2022-12-29T05:14:41;101309.69;;;0.41;100.00
57572;BME280;44459;43.522;24.470;2022-12-29T05:20:29;101324.97;;;0.37;100.00
57572;BME280;44459;43.522;24.470;2022-12-29T05:22:54;101330.22;;;0.38;100.00
57572;BME280;44459;43.522;24.470;2022-12-29T05:25:20;101326.75;;;0.38;100.00
57572;BME280;44459;43.522;24.470;2022-12-29T05:27:45;101328.53;;;0.39;100.00
57572;BME280;44459;43.522;24.470;2022-12-29T05:30:11;101320.56;;;0.36;100.00
57572;BME280;44459;43.522;24.470;2022-12-29T05:32:37;101327.56;;;0.37;100.00
57572;BME280;44459;43.522;24.470;2022-12-29T05:35:02;101325.88;;;0.37;100.00
57572;BME280;44459;43.522;24.470;2022-12-29T05:37:28;101334.31;;;0.35;100.00
57572;BME280;44459;43.522;24.470;2022-12-29T05:39:53;101333.34;;;0.33;100.00
57572;BME280;44459;43.522;24.470;2022-12-29T05:42:18;101340.84;;;0.28;100.00
57572;BME280;44459;43.522;24.470;2022-12-29T05:44:44;101347.94;;;0.31;100.00
57572;BME280;44459;43.522;24.470;2022-12-29T05:47:09;101340.03;;;0.29;100.00
57572;BME280;44459;43.522;24.470;2022-12-29T05:49:35;101345.34;;;0.31;100.00
57572;BME280;44459;43.522;24.470;2022-12-29T05:55:06;101352.91;;;0.28;100.00
57572;BME280;44459;43.522;24.470;2022-12-29T05:57:32;101352.13;;;0.29;100.00
57572;BME280;44459;43.522;24.470;2022-12-29T05:59:57;101355.50;;;0.28;100.00
57572;BME280;44459;43.522;24.470;2022-12-29T06:02:23;101357.22;;;0.27;100.00
57572;BME280;44459;43.522;24.470;2022-12-29T06:04:48;101369.50;;;0.30;100.00
57572;BME280;44459;43.522;24.470;2022-12-29T06:07:14;101360.69;;;0.28;100.00
57572;BME280;44459;43.522;24.470;2022-12-29T06:09:39;101363.81;;;0.22;100.00
57572;BME280;44459;43.522;24.470;2022-12-29T06:12:05;101358.72;;;0.24;100.00
57572;BME280;44459;43.522;24.470;2022-12-29T06:14:30;101360.50;;;0.25;100.00
57572;BME280;44459;43.522;24.470;2022-12-29T06:16:56;101364.13;;;0.27;100.00
57572;BME280;44459;43.522;24.470;2022-12-29T06:19:21;101372.00;;;0.28;100.00
57572;BME280;44459;43.522;24.470;2022-12-29T06:21:46;101374.69;;;0.30;100.00
57572;BME280;44459;43.522;24.470;2022-12-29T06:24:12;101376.50;;;0.31;100.00
57572;BME280;44459;43.522;24.470;2022-12-29T06:26:37;101366.91;;;0.30;100.00
57572;BME280;44459;43.522;24.470;2022-12-29T06:29:03;101379.97;;;0.31;100.00
57572;BME280;44459;43.522;24.470;2022-12-29T06:31:29;101376.69;;;0.34;100.00
57572;BME280;44459;43.522;24.470;2022-12-29T06:33:54;101384.69;;;0.37;100.00
57572;BME280;44459;43.522;24.470;2022-12-29T06:36:20;101377.69;;;0.36;100.00
57572;BME280;44459;43.522;24.470;2022-12-29T06:38:45;101394.34;;;0.39;100.00
57572;BME280;44459;43.522;24.470;2022-12-29T06:41:11;101389.16;;;0.39;100.00
57572;BME280;44459;43.522;24.470;2022-12-29T06:43:36;101386.75;;;0.42;100.00
57572;BME280;44459;43.522;24.470;2022-12-29T06:46:04;101389.66;;;0.47;100.00
57572;BME280;44459;43.522;24.470;2022-12-29T06:48:29;101391.88;;;0.54;100.00
57572;BME280;44459;43.522;24.470;2022-12-29T06:50:55;101388.66;;;0.58;100.00
57572;BME280;44459;43.522;24.470;2022-12-29T06:53:20;101383.53;;;0.60;100.00
57572;BME280;44459;43.522;24.470;2022-12-29T06:55:46;101394.06;;;0.61;100.00
57572;BME280;44459;43.522;24.470;2022-12-29T06:58:11;101395.63;;;0.59;100.00
57572;BME280;44459;43.522;24.470;2022-12-29T07:00:37;101394.44;;;0.67;100.00
57572;BME280;44459;43.522;24.470;2022-12-29T07:03:02;101403.63;;;0.75;100.00
57572;BME280;44459;43.522;24.470;2022-12-29T07:05:27;101390.63;;;0.75;100.00
57572;BME280;44459;43.522;24.470;2022-12-29T07:07:54;101399.00;;;0.84;100.00
57572;BME280;44459;43.522;24.470;2022-12-29T07:10:20;101397.78;;;0.92;100.00
57572;BME280;44459;43.522;24.470;2022-12-29T07:12:45;101398.34;;;1.01;100.00
57572;BME280;44459;43.522;24.470;2022-12-29T07:15:11;101398.75;;;1.08;100.00
57572;BME280;44459;43.522;24.470;2022-12-29T07:17:37;101394.44;;;1.08;100.00
57572;BME280;44459;43.522;24.470;2022-12-29T07:20:02;101396.91;;;1.20;100.00
57572;BME280;44459;43.522;24.470;2022-12-29T07:22:28;101396.47;;;1.27;100.00
57572;BME280;44459;43.522;24.470;2022-12-29T07:24:53;101396.16;;;1.35;100.00
57572;BME280;44459;43.522;24.470;2022-12-29T07:27:19;101391.13;;;1.38;100.00
57572;BME280;44459;43.522;24.470;2022-12-29T07:29:44;101386.31;;;1.44;100.00
57572;BME280;44459;43.522;24.470;2022-12-29T07:32:10;101384.97;;;1.51;100.00
57572;BME280;44459;43.522;24.470;2022-12-29T07:34:35;101389.72;;;1.58;100.00
57572;BME280;44459;43.522;24.470;2022-12-29T07:37:00;101385.72;;;1.63;100.00
57572;BME280;44459;43.522;24.470;2022-12-29T07:39:26;101398.25;;;1.70;100.00
57572;BME280;44459;43.522;24.470;2022-12-29T07:41:51;101389.84;;;1.74;100.00
57572;BME280;44459;43.522;24.470;2022-12-29T07:44:17;101379.81;;;1.80;100.00
57572;BME280;44459;43.522;24.470;2022-12-29T07:46:42;101387.06;;;1.86;100.00
57572;BME280;44459;43.522;24.470;2022-12-29T07:49:08;101384.09;;;1.94;100.00
57572;BME280;44459;43.522;24.470;2022-12-29T07:51:33;101382.66;;;1.99;100.00
57572;BME280;44459;43.522;24.470;2022-12-29T07:53:58;101381.13;;;2.03;100.00
57572;BME280;44459;43.522;24.470;2022-12-29T07:56:26;101386.19;;;2.15;100.00
57572;BME280;44459;43.522;24.470;2022-12-29T07:58:51;101390.94;;;2.22;100.00
57572;BME280;44459;43.522;24.470;2022-12-29T08:01:17;101387.94;;;2.30;100.00
57572;BME280;44459;43.522;24.470;2022-12-29T08:03:42;101383.81;;;2.34;100.00
57572;BME280;44459;43.522;24.470;2022-12-29T08:06:12;101386.84;;;2.41;100.00
57572;BME280;44459;43.522;24.470;2022-12-29T08:08:37;101389.91;;;2.49;100.00
57572;BME280;44459;43.522;24.470;2022-12-29T08:11:03;101396.06;;;2.51;100.00
57572;BME280;44459;43.522;24.470;2022-12-29T08:13:29;101395.34;;;2.53;100.00
57572;BME280;44459;43.522;24.470;2022-12-29T08:15:54;101385.28;;;2.60;100.00
57572;BME280;44459;43.522;24.470;2022-12-29T08:18:19;101383.75;;;2.63;100.00
57572;BME280;44459;43.522;24.470;2022-12-29T08:20:45;101381.47;;;2.69;100.00
57572;BME280;44459;43.522;24.470;2022-12-29T08:23:10;101384.50;;;2.77;100.00
57572;BME280;44459;43.522;24.470;2022-12-29T08:25:36;101385.75;;;2.83;100.00
57572;BME280;44459;43.522;24.470;2022-12-29T08:28:01;101380.06;;;2.90;100.00
57572;BME280;44459;43.522;24.470;2022-12-29T08:30:27;101388.22;;;2.96;100.00
57572;BME280;44459;43.522;24.470;2022-12-29T08:32:52;101386.66;;;3.00;100.00
57572;BME280;44459;43.522;24.470;2022-12-29T08:35:18;101385.38;;;3.08;100.00
57572;BME280;44459;43.522;24.470;2022-12-29T08:37:43;101374.22;;;3.11;100.00
57572;BME280;44459;43.522;24.470;2022-12-29T08:40:09;101381.72;;;3.21;100.00
57572;BME280;44459;43.522;24.470;2022-12-29T08:42:34;101377.66;;;3.26;100.00
57572;BME280;44459;43.522;24.470;2022-12-29T08:45:00;101378.22;;;3.36;100.00
57572;BME280;44459;43.522;24.470;2022-12-29T08:47:26;101380.56;;;3.48;100.00
57572;BME280;44459;43.522;24.470;2022-12-29T08:49:52;101380.22;;;3.58;100.00
57572;BME280;44459;43.522;24.470;2022-12-29T08:52:18;101367.50;;;3.64;100.00
57572;BME280;44459;43.522;24.470;2022-12-29T08:54:43;101372.63;;;3.63;100.00
57572;BME280;44459;43.522;24.470;2022-12-29T08:57:09;101374.00;;;3.72;100.00
57572;BME280;44459;43.522;24.470;2022-12-29T08:59:34;101369.13;;;3.78;100.00
57572;BME280;44459;43.522;24.470;2022-12-29T09:02:00;101370.31;;;3.85;100.00
57572;BME280;44459;43.522;24.470;2022-12-29T09:04:27;101373.47;;;3.95;100.00
57572;BME280;44459;43.522;24.470;2022-12-29T09:06:53;101361.69;;;4.03;100.00
57572;BME280;44459;43.522;24.470;2022-12-29T09:09:19;101357.44;;;4.05;100.00
57572;BME280;44459;43.522;24.470;2022-12-29T09:11:45;101349.25;;;4.16;100.00
57572;BME280;44459;43.522;24.470;2022-12-29T09:14:11;101349.53;;;4.22;100.00
57572;BME280;44459;43.522;24.470;2022-12-29T09:16:36;101340.22;;;4.27;100.00
57572;BME280;44459;43.522;24.470;2022-12-29T09:19:02;101345.78;;;4.34;100.00
57572;BME280;44459;43.522;24.470;2022-12-29T09:21:28;101343.56;;;4.42;100.00
57572;BME280;44459;43.522;24.470;2022-12-29T09:23:53;101339.66;;;4.51;100.00
57572;BME280;44459;43.522;24.470;2022-12-29T09:26:19;101332.13;;;4.57;100.00
57572;BME280;44459;43.522;24.470;2022-12-29T09:28:44;101325.59;;;4.67;100.00
57572;BME280;44459;43.522;24.470;2022-12-29T09:31:10;101317.09;;;4.71;100.00
57572;BME280;44459;43.522;24.470;2022-12-29T09:33:36;101308.63;;;4.77;100.00
57572;BME280;44459;43.522;24.470;2022-12-29T09:36:02;101314.44;;;4.89;100.00
57572;BME280;44459;43.522;24.470;2022-12-29T09:38:27;101304.16;;;4.93;97.71
57572;BME280;44459;43.522;24.470;2022-12-29T09:40:57;101303.59;;;5.00;96.25
57572;BME280;44459;43.522;24.470;2022-12-29T09:43:47;101295.22;;;5.07;94.66
57572;BME280;44459;43.522;24.470;2022-12-29T09:46:29;101305.81;;;5.11;94.71
57572;BME280;44459;43.522;24.470;2022-12-29T09:51:43;101306.41;;;5.24;92.62
57572;BME280;44459;43.522;24.470;2022-12-29T09:56:41;101302.69;;;5.38;90.72
57572;BME280;44459;43.522;24.470;2022-12-29T09:59:14;101298.63;;;5.45;89.83
57572;BME280;44459;43.522;24.470;2022-12-29T10:04:09;101287.44;;;5.49;89.42
57572;BME280;44459;43.522;24.470;2022-12-29T10:23:30;101269.59;;;6.01;88.58
57572;BME280;44459;43.522;24.470;2022-12-29T10:25:58;101267.19;;;6.05;87.82
57572;BME280;44459;43.522;24.470;2022-12-29T10:28:44;101260.72;;;5.97;87.89
57572;BME280;44459;43.522;24.470;2022-12-29T10:31:23;101259.69;;;6.15;87.80
57572;BME280;44459;43.522;24.470;2022-12-29T10:33:55;101256.91;;;6.10;87.92
57572;BME280;44459;43.522;24.470;2022-12-29T10:39:13;101260.88;;;6.23;87.93
57572;BME280;44459;43.522;24.470;2022-12-29T10:41:46;101258.06;;;6.18;87.19
57572;BME280;44459;43.522;24.470;2022-12-29T10:44:15;101259.09;;;6.22;87.04
57572;BME280;44459;43.522;24.470;2022-12-29T10:46:43;101254.63;;;6.19;86.42
57572;BME280;44459;43.522;24.470;2022-12-29T10:49:19;101245.63;;;6.13;86.89
57572;BME280;44459;43.522;24.470;2022-12-29T10:51:47;101250.88;;;6.13;86.87
57572;BME280;44459;43.522;24.470;2022-12-29T10:54:22;101247.16;;;6.07;88.00
57572;BME280;44459;43.522;24.470;2022-12-29T10:59:23;101245.88;;;6.19;86.88
57572;BME280;44459;43.522;24.470;2022-12-29T11:02:00;101246.97;;;6.24;87.02
57572;BME280;44459;43.522;24.470;2022-12-29T11:06:59;101241.44;;;6.38;86.60
57572;BME280;44459;43.522;24.470;2022-12-29T11:09:28;101232.00;;;6.43;83.88
57572;BME280;44459;43.522;24.470;2022-12-29T11:11:55;101232.38;;;6.52;84.03
57572;BME280;44459;43.522;24.470;2022-12-29T11:14:27;101227.75;;;6.47;83.58
57572;BME280;44459;43.522;24.470;2022-12-29T11:17:03;101229.78;;;6.54;84.29
57572;BME280;44459;43.522;24.470;2022-12-29T11:19:31;101228.16;;;6.57;84.56
57572;BME280;44459;43.522;24.470;2022-12-29T11:22:23;101224.63;;;6.57;84.22
57572;BME280;44459;43.522;24.470;2022-12-29T11:24:52;101219.34;;;6.55;85.51
57572;BME280;44459;43.522;24.470;2022-12-29T11:27:23;101214.03;;;6.54;85.17
57572;BME280;44459;43.522;24.470;2022-12-29T11:29:50;101208.69;;;6.51;84.27
57572;BME280;44459;43.522;24.470;2022-12-29T11:32:25;101216.75;;;6.55;85.56
57572;BME280;44459;43.522;24.470;2022-12-29T11:34:52;101215.22;;;6.62;82.74
57572;BME280;44459;43.522;24.470;2022-12-29T11:37:32;101210.09;;;6.65;82.88
57572;BME280;44459;43.522;24.470;2022-12-29T11:45:33;101210.31;;;6.71;80.48
57572;BME280;44459;43.522;24.470;2022-12-29T11:48:08;101209.81;;;6.81;79.96
57572;BME280;44459;43.522;24.470;2022-12-29T11:50:38;101204.75;;;6.86;78.32
57572;BME280;44459;43.522;24.470;2022-12-29T11:53:19;101194.19;;;6.84;77.71
57572;BME280;44459;43.522;24.470;2022-12-29T11:56:01;101192.56;;;6.88;77.40
57572;BME280;44459;43.522;24.470;2022-12-29T11:58:29;101190.91;;;6.90;77.49
57572;BME280;44459;43.522;24.470;2022-12-29T12:01:00;101196.44;;;6.97;77.08
57572;BME280;44459;43.522;24.470;2022-12-29T12:03:26;101195.63;;;7.00;77.68
57572;BME280;44459;43.522;24.470;2022-12-29T12:05:56;101186.97;;;7.02;77.13
57572;BME280;44459;43.522;24.470;2022-12-29T12:08:44;101182.56;;;7.01;76.25
57572;BME280;44459;43.522;24.470;2022-12-29T12:11:18;101180.16;;;7.07;76.78
57572;BME280;44459;43.522;24.470;2022-12-29T12:16:49;101174.28;;;7.15;78.60
57572;BME280;44459;43.522;24.470;2022-12-29T12:19:41;101178.84;;;7.20;77.47
57572;BME280;44459;43.522;24.470;2022-12-29T12:22:18;101178.78;;;7.19;77.09
57572;BME280;44459;43.522;24.470;2022-12-29T12:24:52;101174.66;;;7.25;77.55
57572;BME280;44459;43.522;24.470;2022-12-29T12:27:36;101165.78;;;7.22;77.21
57572;BME280;44459;43.522;24.470;2022-12-29T12:30:15;101166.03;;;7.29;76.48
57572;BME280;44459;43.522;24.470;2022-12-29T12:43:37;101159.03;;;7.30;76.00
57572;BME280;44459;43.522;24.470;2022-12-29T12:54:21;101165.47;;;7.39;75.95
57572;BME280;44459;43.522;24.470;2022-12-29T13:02:32;101162.84;;;7.65;74.32
57572;BME280;44459;43.522;24.470;2022-12-29T13:08:21;101164.66;;;7.67;73.93
57572;BME280;44459;43.522;24.470;2022-12-29T13:13:41;101167.41;;;7.70;73.28
57572;BME280;44459;43.522;24.470;2022-12-29T13:16:23;101168.44;;;7.75;73.21
57572;BME280;44459;43.522;24.470;2022-12-29T13:19:10;101169.25;;;7.73;73.16
57572;BME280;44459;43.522;24.470;2022-12-29T13:22:02;101175.75;;;7.84;73.48
57572;BME280;44459;43.522;24.470;2022-12-29T13:27:20;101175.09;;;7.91;73.14
57572;BME280;44459;43.522;24.470;2022-12-29T13:32:42;101173.25;;;7.88;73.47
57572;BME280;44459;43.522;24.470;2022-12-29T13:35:35;101163.38;;;7.81;73.78
57572;BME280;44459;43.522;24.470;2022-12-29T13:38:12;101160.75;;;7.81;73.17
57572;BME280;44459;43.522;24.470;2022-12-29T13:40:43;101160.16;;;7.90;72.46
57572;BME280;44459;43.522;24.470;2022-12-29T13:43:11;101158.47;;;7.92;71.51
57572;BME280;44459;43.522;24.470;2022-12-29T13:45:39;101159.53;;;7.98;71.43
57572;BME280;44459;43.522;24.470;2022-12-29T13:48:14;101152.53;;;7.99;71.42
57572;BME280;44459;43.522;24.470;2022-12-29T13:50:43;101158.59;;;7.96;72.32
57572;BME280;44459;43.522;24.470;2022-12-29T13:56:09;101163.88;;;7.96;72.24
57572;BME280;44459;43.522;24.470;2022-12-29T13:58:45;101161.34;;;7.99;72.09
57572;BME280;44459;43.522;24.470;2022-12-29T14:03:48;101164.91;;;8.01;71.80
57572;BME280;44459;43.522;24.470;2022-12-29T14:06:27;101165.91;;;8.05;71.78
57572;BME280;44459;43.522;24.470;2022-12-29T14:08:58;101172.75;;;8.00;71.79
57572;BME280;44459;43.522;24.470;2022-12-29T14:14:25;101165.78;;;8.02;72.38
57572;BME280;44459;43.522;24.470;2022-12-29T14:16:50;101172.16;;;8.08;72.66
57572;BME280;44459;43.522;24.470;2022-12-29T14:19:21;101169.28;;;8.01;73.02
57572;BME280;44459;43.522;24.470;2022-12-29T14:21:53;101173.72;;;8.03;73.14
57572;BME280;44459;43.522;24.470;2022-12-29T14:29:50;101172.47;;;7.91;75.81
57572;BME280;44459;43.522;24.470;2022-12-29T14:37:35;101168.59;;;7.80;77.63
57572;BME280;44459;43.522;24.470;2022-12-29T14:42:43;101168.34;;;7.72;78.21
57572;BME280;44459;43.522;24.470;2022-12-29T14:47:39;101170.81;;;7.68;78.33
57572;BME280;44459;43.522;24.470;2022-12-29T14:52:58;101164.84;;;7.46;77.80
57572;BME280;44459;43.522;24.470;2022-12-29T14:58:02;101165.88;;;7.25;77.43
57572;BME280;44459;43.522;24.470;2022-12-29T15:00:34;101167.13;;;7.11;77.67
57572;BME280;44459;43.522;24.470;2022-12-29T15:03:06;101156.19;;;6.98;77.66
57572;BME280;44459;43.522;24.470;2022-12-29T15:05:55;101146.53;;;6.72;79.47
57572;BME280;44459;43.522;24.470;2022-12-29T15:08:26;101159.56;;;6.71;79.74
57572;BME280;44459;43.522;24.470;2022-12-29T15:11:22;101154.91;;;6.62;80.33
57572;BME280;44459;43.522;24.470;2022-12-29T15:13:48;101156.94;;;6.47;80.32
57572;BME280;44459;43.522;24.470;2022-12-29T15:16:26;101156.63;;;6.38;80.72
57572;BME280;44459;43.522;24.470;2022-12-29T15:18:54;101158.94;;;6.30;82.19
57572;BME280;44459;43.522;24.470;2022-12-29T15:21:39;101165.50;;;6.19;82.49
57572;BME280;44459;43.522;24.470;2022-12-29T15:24:10;101160.75;;;6.09;82.94
57572;BME280;44459;43.522;24.470;2022-12-29T15:26:38;101155.16;;;6.00;83.17
57572;BME280;44459;43.522;24.470;2022-12-29T15:29:04;101165.25;;;5.91;83.23
57572;BME280;44459;43.522;24.470;2022-12-29T15:31:30;101158.59;;;5.78;83.48